createdAt,value
2017-03-23T00:00:19.991Z,0
2017-03-23T00:01:33.393Z,0
2017-03-23T00:02:46.773Z,0
2017-03-23T00:04:00.715Z,0
2017-03-23T00:05:14.634Z,0
2017-03-23T00:06:28.039Z,0
2017-03-23T00:07:42.009Z,0
2017-03-23T00:08:55.948Z,0
2017-03-23T00:10:09.916Z,0
2017-03-23T00:11:23.855Z,0
2017-03-23T00:12:37.249Z,0
2017-03-23T00:13:50.072Z,0
2017-03-23T00:15:03.468Z,0
2017-03-23T00:16:16.862Z,0
2017-03-23T00:17:30.843Z,0
2017-03-23T00:18:44.194Z,0
2017-03-23T00:19:57.598Z,0
2017-03-23T00:21:11.555Z,0
2017-03-23T00:22:25.555Z,0
2017-03-23T00:23:39.535Z,0
2017-03-23T00:24:53.515Z,0
2017-03-23T00:26:06.927Z,0
2017-03-23T00:27:20.358Z,0
2017-03-23T00:28:34.308Z,0
2017-03-23T00:29:47.710Z,0
2017-03-23T00:31:01.136Z,0
2017-03-23T00:32:15.107Z,0
2017-03-23T00:33:29.039Z,0
2017-03-23T00:34:42.995Z,0
2017-03-23T00:35:57.014Z,0
2017-03-23T00:37:10.421Z,0
2017-03-23T00:38:24.389Z,0
2017-03-23T00:39:38.383Z,0
2017-03-23T00:40:51.242Z,0
2017-03-23T00:42:05.262Z,0
2017-03-23T00:43:18.690Z,0
2017-03-23T00:44:32.646Z,0
2017-03-23T00:45:45.981Z,0
2017-03-23T00:46:59.269Z,0
2017-03-23T00:48:12.553Z,0
2017-03-23T00:49:25.314Z,0
2017-03-23T00:50:38.553Z,0
2017-03-23T00:51:51.282Z,0
2017-03-23T00:53:04.565Z,0
2017-03-23T00:54:17.291Z,0
2017-03-23T00:55:30.611Z,0
2017-03-23T00:56:43.359Z,0
2017-03-23T00:57:56.091Z,0
2017-03-23T00:59:08.819Z,0
2017-03-23T01:00:22.064Z,0
2017-03-23T01:01:35.318Z,0
2017-03-23T01:02:48.049Z,0
2017-03-23T01:04:01.283Z,0
2017-03-23T01:05:14.033Z,0
2017-03-23T01:06:27.330Z,0
2017-03-23T01:07:40.082Z,0
2017-03-23T01:08:53.346Z,0
2017-03-23T01:10:06.096Z,0
2017-03-23T01:11:18.861Z,0
2017-03-23T01:12:32.122Z,0
2017-03-23T01:13:45.394Z,0
2017-03-23T01:14:58.162Z,0
2017-03-23T01:16:11.414Z,0
2017-03-23T01:17:24.643Z,0
2017-03-23T01:18:37.890Z,0
2017-03-23T01:19:51.141Z,0
2017-03-23T01:21:02.855Z,0
2017-03-23T01:22:15.602Z,0
2017-03-23T01:23:28.324Z,0
2017-03-23T01:24:41.561Z,0
2017-03-23T01:25:54.320Z,0
2017-03-23T01:27:07.594Z,0
2017-03-23T01:28:20.861Z,0
2017-03-23T01:29:34.091Z,0
2017-03-23T01:30:47.366Z,0
2017-03-23T01:32:00.126Z,0
2017-03-23T01:33:13.393Z,0
2017-03-23T01:34:26.117Z,0
2017-03-23T01:35:39.373Z,0
2017-03-23T01:36:52.110Z,0
2017-03-23T01:38:05.375Z,0
2017-03-23T01:39:18.121Z,0
2017-03-23T01:40:30.864Z,0
2017-03-23T01:41:43.609Z,0
2017-03-23T01:42:56.382Z,0
2017-03-23T01:44:09.125Z,0
2017-03-23T01:45:22.428Z,0
2017-03-23T01:46:35.698Z,0
2017-03-23T01:47:48.438Z,0
2017-03-23T01:49:01.705Z,0
2017-03-23T01:50:14.448Z,0
2017-03-23T01:51:27.749Z,0
2017-03-23T01:52:40.573Z,0
2017-03-23T01:53:53.812Z,0
2017-03-23T01:55:05.514Z,0
2017-03-23T01:56:18.264Z,0
2017-03-23T01:57:31.561Z,0
2017-03-23T01:58:43.789Z,0
2017-03-23T01:59:56.508Z,0
2017-03-23T02:01:09.255Z,0
2017-03-23T02:02:22.553Z,0
2017-03-23T02:03:35.274Z,0
2017-03-23T02:04:48.055Z,0
2017-03-23T02:06:00.273Z,0
2017-03-23T02:07:13.522Z,0
2017-03-23T02:08:26.748Z,0
2017-03-23T02:09:39.492Z,0
2017-03-23T02:10:52.891Z,0
2017-03-23T02:12:05.643Z,0
2017-03-23T02:13:18.372Z,0
2017-03-23T02:14:31.627Z,0
2017-03-23T02:15:43.942Z,0
2017-03-23T02:16:57.178Z,0
2017-03-23T02:18:09.916Z,0
2017-03-23T02:19:23.172Z,0
2017-03-23T02:20:36.409Z,0
2017-03-23T02:21:49.698Z,0
2017-03-23T02:23:02.943Z,0
2017-03-23T02:24:16.139Z,0
2017-03-23T02:25:29.394Z,0
2017-03-23T02:26:42.149Z,0
2017-03-23T02:27:54.848Z,0
2017-03-23T02:29:08.121Z,0
2017-03-23T02:30:20.836Z,0
2017-03-23T02:31:34.137Z,0
2017-03-23T02:32:47.421Z,0
2017-03-23T02:34:00.648Z,0
2017-03-23T02:35:12.889Z,0
2017-03-23T02:36:26.128Z,0
2017-03-23T02:37:39.357Z,0
2017-03-23T02:38:52.123Z,0
2017-03-23T02:40:05.378Z,0
2017-03-23T02:41:18.602Z,0
2017-03-23T02:42:31.842Z,0
2017-03-23T02:43:45.088Z,0
2017-03-23T02:44:58.366Z,0
2017-03-23T02:46:11.663Z,0
2017-03-23T02:47:24.383Z,0
2017-03-23T02:48:36.663Z,0
2017-03-23T02:49:49.916Z,0
2017-03-23T02:51:02.105Z,0
2017-03-23T02:52:14.870Z,0
2017-03-23T02:53:28.103Z,0
2017-03-23T02:54:41.372Z,0
2017-03-23T02:55:53.625Z,0
2017-03-23T02:57:06.363Z,0
2017-03-23T02:58:19.102Z,0
2017-03-23T02:59:31.295Z,0
2017-03-23T03:00:44.025Z,0
2017-03-23T03:01:56.765Z,0
2017-03-23T03:03:10.214Z,0
2017-03-23T03:04:22.956Z,0
2017-03-23T03:05:36.218Z,0
2017-03-23T03:06:48.448Z,0
2017-03-23T03:08:00.724Z,0
2017-03-23T03:09:13.961Z,0
2017-03-23T03:10:27.201Z,0
2017-03-23T03:11:40.493Z,0
2017-03-23T03:12:52.749Z,0
2017-03-23T03:14:05.997Z,0
2017-03-23T03:15:18.228Z,0
2017-03-23T03:16:30.947Z,0
2017-03-23T03:17:43.683Z,0
2017-03-23T03:18:56.945Z,0
2017-03-23T03:20:09.154Z,0
2017-03-23T03:21:22.406Z,0
2017-03-23T03:22:35.862Z,0
2017-03-23T03:23:48.595Z,0
2017-03-23T03:25:01.303Z,0
2017-03-23T03:26:14.624Z,0
2017-03-23T03:27:27.327Z,0
2017-03-23T03:28:40.571Z,0
2017-03-23T03:29:52.832Z,0
2017-03-23T03:31:06.079Z,0
2017-03-23T03:32:19.332Z,0
2017-03-23T03:33:32.596Z,0
2017-03-23T03:34:45.322Z,0
2017-03-23T03:35:58.056Z,0
2017-03-23T03:37:11.285Z,0
2017-03-23T03:38:24.550Z,0
2017-03-23T03:39:37.306Z,0
2017-03-23T03:40:50.576Z,0
2017-03-23T03:42:03.339Z,0
2017-03-23T03:43:16.576Z,0
2017-03-23T03:44:29.792Z,0
2017-03-23T03:45:42.516Z,0
2017-03-23T03:46:55.820Z,0
2017-03-23T03:48:09.071Z,0
2017-03-23T03:49:21.804Z,0
2017-03-23T03:50:34.571Z,0
2017-03-23T03:51:47.305Z,0
2017-03-23T03:52:59.499Z,0
2017-03-23T03:54:12.235Z,0
2017-03-23T03:55:25.475Z,0
2017-03-23T03:56:38.195Z,0
2017-03-23T03:57:50.922Z,0
2017-03-23T03:59:03.638Z,0
2017-03-23T04:00:16.904Z,0
2017-03-23T04:01:30.178Z,0
2017-03-23T04:02:43.424Z,0
2017-03-23T04:03:56.134Z,0
2017-03-23T04:05:09.390Z,0
2017-03-23T04:06:22.654Z,0
2017-03-23T04:07:35.918Z,0
2017-03-23T04:08:48.658Z,0
2017-03-23T04:10:01.909Z,0
2017-03-23T04:11:15.170Z,0
2017-03-23T04:12:28.435Z,0
2017-03-23T04:13:40.641Z,0
2017-03-23T04:14:52.888Z,0
2017-03-23T04:16:06.179Z,0
2017-03-23T04:17:18.400Z,0
2017-03-23T04:18:31.659Z,0
2017-03-23T04:19:43.882Z,0
2017-03-23T04:20:56.094Z,0
2017-03-23T04:22:09.340Z,0
2017-03-23T04:24:56.066Z,0
2017-03-23T04:26:09.318Z,0
2017-03-23T04:27:22.533Z,0
2017-03-23T04:28:35.776Z,0
2017-03-23T04:29:47.985Z,0
2017-03-23T04:31:00.194Z,0
2017-03-23T04:32:12.400Z,0
2017-03-23T04:33:25.667Z,0
2017-03-23T04:34:37.886Z,0
2017-03-23T04:35:50.073Z,0
2017-03-23T04:37:02.840Z,0
2017-03-23T04:38:15.599Z,0
2017-03-23T04:39:28.930Z,0
2017-03-23T04:40:41.636Z,0
2017-03-23T04:41:54.885Z,0
2017-03-23T04:43:07.598Z,0
2017-03-23T04:44:20.869Z,0
2017-03-23T04:45:33.118Z,0
2017-03-23T04:46:45.865Z,0
2017-03-23T04:47:59.136Z,0
2017-03-23T04:49:12.387Z,0
2017-03-23T04:50:25.646Z,0
2017-03-23T04:51:38.374Z,0
2017-03-23T04:52:51.588Z,0
2017-03-23T04:54:04.840Z,0
2017-03-23T04:55:17.068Z,0
2017-03-23T04:56:29.812Z,0
2017-03-23T04:57:43.074Z,0
2017-03-23T04:58:56.307Z,0
2017-03-23T05:00:09.091Z,0
2017-03-23T05:01:22.326Z,0
2017-03-23T05:02:35.152Z,0
2017-03-23T05:03:47.897Z,0
2017-03-23T05:05:01.153Z,0
2017-03-23T05:06:14.384Z,0
2017-03-23T05:07:27.606Z,0
2017-03-23T05:08:40.334Z,0
2017-03-23T05:09:53.610Z,0
2017-03-23T05:11:06.862Z,0
2017-03-23T05:12:20.144Z,0
2017-03-23T05:13:32.902Z,0
2017-03-23T05:14:45.698Z,0
2017-03-23T05:15:58.956Z,0
2017-03-23T05:17:12.192Z,0
2017-03-23T05:18:25.437Z,0
2017-03-23T05:19:38.203Z,0
2017-03-23T05:20:50.924Z,0
2017-03-23T05:22:03.131Z,0
2017-03-23T05:23:16.361Z,0
2017-03-23T05:24:29.621Z,0
2017-03-23T05:25:41.870Z,0
2017-03-23T05:26:55.137Z,0
2017-03-23T05:28:08.436Z,0
2017-03-23T05:29:21.692Z,0
2017-03-23T05:30:34.415Z,0
2017-03-23T05:31:47.667Z,0
2017-03-23T05:32:59.870Z,0
2017-03-23T05:34:13.163Z,0
2017-03-23T05:35:26.448Z,0
2017-03-23T05:36:39.713Z,0
2017-03-23T05:37:52.452Z,0
2017-03-23T05:39:05.220Z,0
2017-03-23T05:40:17.946Z,0
2017-03-23T05:41:31.185Z,0
2017-03-23T05:42:44.407Z,0
2017-03-23T05:43:57.132Z,0
2017-03-23T05:45:10.388Z,0
2017-03-23T05:46:23.082Z,0
2017-03-23T05:47:36.359Z,0
2017-03-23T05:48:49.644Z,0
2017-03-23T05:50:02.891Z,0
2017-03-23T05:51:15.144Z,0
2017-03-23T05:52:28.402Z,0
2017-03-23T05:53:41.650Z,0
2017-03-23T05:54:54.429Z,0
2017-03-23T05:56:07.682Z,0
2017-03-23T05:57:20.951Z,0
2017-03-23T05:58:34.240Z,0
2017-03-23T05:59:47.513Z,0
2017-03-23T06:01:00.271Z,0
2017-03-23T06:02:13.009Z,0
2017-03-23T06:03:26.241Z,0
2017-03-23T06:04:38.496Z,0
2017-03-23T06:05:51.245Z,0
2017-03-23T06:07:04.498Z,0
2017-03-23T06:08:17.799Z,0
2017-03-23T06:09:30.016Z,0
2017-03-23T06:10:43.247Z,0
2017-03-23T06:11:56.482Z,0
2017-03-23T06:13:09.731Z,0
2017-03-23T06:14:22.999Z,0
2017-03-23T06:15:36.242Z,0
2017-03-23T06:16:49.529Z,0
2017-03-23T06:18:02.283Z,0
2017-03-23T06:19:15.035Z,0
2017-03-23T06:20:28.363Z,0
2017-03-23T06:21:41.282Z,0
2017-03-23T06:22:54.003Z,0
2017-03-23T06:24:07.287Z,0
2017-03-23T06:25:20.513Z,0
2017-03-23T06:26:32.721Z,0
2017-03-23T06:27:44.977Z,0
2017-03-23T06:28:58.205Z,0
2017-03-23T06:30:10.969Z,0
2017-03-23T06:31:24.206Z,0
2017-03-23T06:32:36.925Z,0
2017-03-23T06:33:50.185Z,0
2017-03-23T06:35:02.926Z,0
2017-03-23T06:36:15.132Z,0
2017-03-23T06:37:28.375Z,0
2017-03-23T06:38:41.644Z,0
2017-03-23T06:39:54.905Z,0
2017-03-23T06:41:07.641Z,0
2017-03-23T06:42:20.920Z,0
2017-03-23T06:43:34.176Z,0
2017-03-23T06:44:46.903Z,0
2017-03-23T06:45:59.144Z,0
2017-03-23T06:47:12.392Z,0
2017-03-23T06:48:25.632Z,0
2017-03-23T06:49:37.852Z,0
2017-03-23T06:50:51.105Z,0
2017-03-23T06:52:04.347Z,0
2017-03-23T06:53:17.636Z,0
2017-03-23T06:54:30.372Z,0
2017-03-23T06:55:43.662Z,0
2017-03-23T06:56:56.388Z,0
2017-03-23T06:58:09.126Z,0
2017-03-23T06:59:22.452Z,0
2017-03-23T07:00:35.720Z,0
2017-03-23T07:01:48.960Z,0
2017-03-23T07:03:01.691Z,0
2017-03-23T07:04:14.400Z,0
2017-03-23T07:05:27.643Z,0
2017-03-23T07:06:40.403Z,0
2017-03-23T07:07:52.617Z,0
2017-03-23T07:09:05.890Z,0
2017-03-23T07:10:18.607Z,0
2017-03-23T07:11:31.337Z,0
2017-03-23T07:12:44.087Z,0
2017-03-23T07:13:57.340Z,0
2017-03-23T07:15:10.592Z,0
2017-03-23T07:16:23.825Z,0
2017-03-23T07:17:37.077Z,0
2017-03-23T07:18:50.341Z,0
2017-03-23T07:20:03.039Z,0
2017-03-23T07:21:15.777Z,0
2017-03-23T07:22:28.525Z,0
2017-03-23T07:23:41.792Z,0
2017-03-23T07:24:55.038Z,0
2017-03-23T07:26:07.776Z,0
2017-03-23T07:27:20.510Z,0
2017-03-23T07:28:33.755Z,0
2017-03-23T07:29:47.001Z,0
2017-03-23T07:31:00.282Z,0
2017-03-23T07:32:13.527Z,0
2017-03-23T07:33:26.257Z,0
2017-03-23T07:34:38.996Z,0
2017-03-23T07:35:50.713Z,0
2017-03-23T07:37:03.943Z,0
2017-03-23T07:38:17.180Z,0
2017-03-23T07:39:29.919Z,0
2017-03-23T07:40:42.640Z,0
2017-03-23T07:41:55.883Z,0
2017-03-23T07:43:08.671Z,0
2017-03-23T07:44:22.172Z,0
2017-03-23T07:45:35.430Z,0
2017-03-23T07:46:48.694Z,0
2017-03-23T07:48:01.939Z,0
2017-03-23T07:49:14.691Z,0
2017-03-23T07:50:27.450Z,0
2017-03-23T07:51:40.702Z,0
2017-03-23T07:52:53.425Z,0
2017-03-23T07:54:06.192Z,0
2017-03-23T07:55:19.451Z,0
2017-03-23T07:56:32.730Z,0
2017-03-23T07:57:45.470Z,0
2017-03-23T07:58:58.703Z,0
2017-03-23T08:00:11.986Z,0
2017-03-23T08:01:25.249Z,0
2017-03-23T08:02:38.506Z,0
2017-03-23T08:03:51.207Z,0
2017-03-23T08:05:04.460Z,0
2017-03-23T08:06:17.195Z,0
2017-03-23T08:07:30.439Z,0
2017-03-23T08:08:43.693Z,0
2017-03-23T08:09:56.411Z,0
2017-03-23T08:11:09.649Z,0
2017-03-23T08:12:22.381Z,0
2017-03-23T08:13:35.674Z,0
2017-03-23T08:14:48.921Z,0
2017-03-23T08:16:01.691Z,0
2017-03-23T08:17:14.924Z,0
2017-03-23T08:18:27.656Z,0
2017-03-23T08:19:40.399Z,0
2017-03-23T08:20:53.164Z,0
2017-03-23T08:22:06.439Z,0
2017-03-23T08:23:19.162Z,0
2017-03-23T08:24:32.402Z,0
2017-03-23T08:25:45.702Z,0
2017-03-23T08:26:58.474Z,0
2017-03-23T08:28:11.692Z,0
2017-03-23T08:29:23.942Z,0
2017-03-23T08:30:36.177Z,0
2017-03-23T08:31:49.431Z,0
2017-03-23T08:33:02.684Z,0
2017-03-23T08:34:15.954Z,0
2017-03-23T08:35:28.677Z,0
2017-03-23T08:36:41.929Z,0
2017-03-23T08:37:55.175Z,0
2017-03-23T08:39:07.875Z,0
2017-03-23T08:40:20.598Z,0
2017-03-23T08:41:33.837Z,0
2017-03-23T08:42:46.051Z,0
2017-03-23T08:43:58.785Z,0
2017-03-23T08:45:12.038Z,0
2017-03-23T08:46:25.299Z,0
2017-03-23T08:47:38.595Z,0
2017-03-23T08:48:51.899Z,0
2017-03-23T08:50:04.121Z,0
2017-03-23T08:51:17.356Z,0
2017-03-23T08:52:30.087Z,0
2017-03-23T08:53:43.348Z,0
2017-03-23T08:54:56.137Z,0
2017-03-23T08:56:08.880Z,0
2017-03-23T08:57:21.612Z,0
2017-03-23T08:58:34.352Z,0
2017-03-23T08:59:47.054Z,0
2017-03-23T09:00:59.799Z,0
2017-03-23T09:02:12.533Z,5
2017-03-23T09:03:24.741Z,5
2017-03-23T09:04:37.974Z,10
2017-03-23T09:05:51.217Z,10
2017-03-23T09:07:04.459Z,10
2017-03-23T09:08:18.835Z,10
2017-03-23T09:09:31.004Z,15
2017-03-23T09:10:44.242Z,15
2017-03-23T09:11:57.031Z,20
2017-03-23T09:13:10.267Z,25
2017-03-23T09:14:23.509Z,25
2017-03-23T09:15:36.244Z,30
2017-03-23T09:16:48.964Z,35
2017-03-23T09:18:02.240Z,40
2017-03-23T09:19:14.979Z,45
2017-03-23T09:20:27.739Z,50
2017-03-23T09:21:40.980Z,55
2017-03-23T09:22:53.691Z,65
2017-03-23T09:24:06.944Z,70
2017-03-23T09:25:19.707Z,70
2017-03-23T09:26:32.939Z,80
2017-03-23T09:27:45.635Z,85
2017-03-23T09:28:58.875Z,95
2017-03-23T09:30:12.122Z,110
2017-03-23T09:31:24.831Z,110
2017-03-23T09:32:37.530Z,115
2017-03-23T09:33:50.761Z,125
2017-03-23T09:35:03.469Z,135
2017-03-23T09:36:15.675Z,150
2017-03-23T09:37:28.409Z,155
2017-03-23T09:38:41.644Z,180
2017-03-23T09:39:54.916Z,205
2017-03-23T09:41:07.651Z,205
2017-03-23T09:42:20.921Z,210
2017-03-23T09:43:34.173Z,200
2017-03-23T09:44:46.381Z,205
2017-03-23T09:45:59.111Z,210
2017-03-23T09:47:12.356Z,210
2017-03-23T09:48:25.124Z,205
2017-03-23T09:49:38.373Z,205
2017-03-23T09:50:51.100Z,235
2017-03-23T09:52:04.371Z,290
2017-03-23T09:53:17.657Z,295
2017-03-23T09:54:30.917Z,315
2017-03-23T09:55:44.210Z,325
2017-03-23T09:56:56.973Z,370
2017-03-23T09:58:09.681Z,340
2017-03-23T09:59:22.936Z,280
2017-03-23T10:00:36.175Z,345
2017-03-23T10:01:49.429Z,375
2017-03-23T10:03:02.180Z,285
2017-03-23T10:04:14.919Z,370
2017-03-23T10:05:28.166Z,430
2017-03-23T10:06:40.957Z,385
2017-03-23T10:07:54.247Z,475
2017-03-23T10:09:07.626Z,510
2017-03-23T10:10:20.364Z,430
2017-03-23T10:11:33.644Z,435
2017-03-23T10:12:46.910Z,465
2017-03-23T10:13:59.663Z,530
2017-03-23T10:15:13.616Z,575
2017-03-23T10:16:26.941Z,555
2017-03-23T10:17:39.154Z,565
2017-03-23T10:18:52.400Z,530
2017-03-23T10:20:05.607Z,515
2017-03-23T10:21:18.353Z,570
2017-03-23T10:22:31.138Z,655
2017-03-23T10:23:44.384Z,695
2017-03-23T10:24:57.616Z,1340
2017-03-23T10:26:10.856Z,1180
2017-03-23T10:27:24.137Z,715
2017-03-23T10:28:36.845Z,570
2017-03-23T10:29:49.797Z,575
2017-03-23T10:31:03.047Z,535
2017-03-23T10:32:15.767Z,675
2017-03-23T10:33:28.502Z,505
2017-03-23T10:34:41.205Z,495
2017-03-23T10:35:53.900Z,635
2017-03-23T10:37:07.163Z,1075
2017-03-23T10:38:20.442Z,1305
2017-03-23T10:39:33.237Z,755
2017-03-23T10:40:46.496Z,1675
2017-03-23T10:41:58.198Z,1475
2017-03-23T10:43:10.921Z,1485
2017-03-23T10:44:23.160Z,1240
2017-03-23T10:45:35.372Z,1025
2017-03-23T10:46:48.640Z,1265
2017-03-23T10:48:01.993Z,1330
2017-03-23T10:49:14.867Z,1640
2017-03-23T10:50:28.105Z,1555
2017-03-23T10:51:41.394Z,1160
2017-03-23T10:52:54.115Z,1635
2017-03-23T10:54:06.854Z,1855
2017-03-23T10:55:19.616Z,1995
2017-03-23T10:56:32.871Z,2010
2017-03-23T10:57:44.589Z,2100
2017-03-23T10:58:57.337Z,2005
2017-03-23T11:00:10.062Z,1280
2017-03-23T11:01:22.822Z,1205
2017-03-23T11:02:36.101Z,1390
2017-03-23T11:03:49.352Z,1700
2017-03-23T11:05:02.264Z,920
2017-03-23T11:06:15.105Z,1045
2017-03-23T11:07:28.365Z,1955
2017-03-23T11:08:41.108Z,1830
2017-03-23T11:09:53.844Z,930
2017-03-23T11:11:07.071Z,755
2017-03-23T11:12:19.794Z,1250
2017-03-23T11:13:32.064Z,1670
2017-03-23T11:14:44.798Z,1075
2017-03-23T11:15:57.026Z,1170
2017-03-23T11:17:10.322Z,1420
2017-03-23T11:18:23.052Z,1780
2017-03-23T11:19:35.794Z,1625
2017-03-23T11:20:49.050Z,1615
2017-03-23T11:22:02.297Z,1535
2017-03-23T11:23:14.563Z,1425
2017-03-23T11:24:27.825Z,1530
2017-03-23T11:25:40.573Z,2000
2017-03-23T11:26:53.383Z,2170
2017-03-23T11:28:06.626Z,1660
2017-03-23T11:29:19.374Z,1155
2017-03-23T11:30:32.130Z,1950
2017-03-23T11:31:44.874Z,1700
2017-03-23T11:32:58.222Z,1925
2017-03-23T11:34:11.004Z,2160
2017-03-23T11:35:24.273Z,1320
2017-03-23T11:36:37.036Z,2260
2017-03-23T11:37:49.751Z,2365
2017-03-23T11:39:02.469Z,2340
2017-03-23T11:40:15.723Z,2400
2017-03-23T11:41:28.973Z,2515
2017-03-23T11:42:41.232Z,2530
2017-03-23T11:43:54.470Z,2535
2017-03-23T11:45:07.781Z,2570
2017-03-23T11:46:20.511Z,2575
2017-03-23T11:47:33.801Z,2325
2017-03-23T11:48:47.106Z,1505
2017-03-23T11:50:00.365Z,1385
2017-03-23T11:51:13.103Z,2535
2017-03-23T11:52:26.356Z,2380
2017-03-23T11:53:39.080Z,2485
2017-03-23T11:54:51.800Z,2315
2017-03-23T11:56:05.034Z,2320
2017-03-23T11:57:16.771Z,2360
2017-03-23T11:58:29.495Z,2075
2017-03-23T11:59:42.767Z,2470
2017-03-23T12:00:55.502Z,1950
2017-03-23T12:02:08.247Z,2305
2017-03-23T12:03:21.529Z,2280
2017-03-23T12:04:34.246Z,2245
2017-03-23T12:05:47.502Z,2300
2017-03-23T12:07:00.746Z,2415
2017-03-23T12:08:13.987Z,2135
2017-03-23T12:09:26.770Z,2615
2017-03-23T12:10:40.043Z,2760
2017-03-23T12:11:53.272Z,2670
2017-03-23T12:13:06.033Z,2625
2017-03-23T12:14:19.298Z,2845
2017-03-23T12:15:31.566Z,2715
2017-03-23T12:16:44.310Z,2435
2017-03-23T12:17:57.076Z,2480
2017-03-23T12:19:09.799Z,2515
2017-03-23T12:20:23.082Z,2525
2017-03-23T12:21:35.819Z,2610
2017-03-23T12:22:48.555Z,2760
2017-03-23T12:24:01.793Z,2780
2017-03-23T12:25:15.046Z,2730
2017-03-23T12:26:28.329Z,2700
2017-03-23T12:27:41.050Z,2670
2017-03-23T12:28:54.361Z,2690
2017-03-23T12:30:07.110Z,2590
2017-03-23T12:31:19.856Z,2585
2017-03-23T12:32:32.656Z,2690
2017-03-23T12:33:45.965Z,2905
2017-03-23T12:34:59.249Z,2735
2017-03-23T12:36:12.499Z,2795
2017-03-23T12:37:25.276Z,2165
2017-03-23T12:38:38.068Z,2775
2017-03-23T12:39:50.873Z,2770
2017-03-23T12:41:04.169Z,2320
2017-03-23T12:42:16.929Z,2420
2017-03-23T12:43:30.199Z,2785
2017-03-23T12:44:43.482Z,3005
2017-03-23T12:45:56.734Z,3130
2017-03-23T12:47:10.010Z,3275
2017-03-23T12:48:23.307Z,3465
2017-03-23T12:49:35.527Z,1485
2017-03-23T12:50:48.805Z,3380
2017-03-23T12:52:02.033Z,3155
2017-03-23T12:53:15.301Z,3495
2017-03-23T12:54:28.555Z,2010
2017-03-23T12:55:41.309Z,2040
2017-03-23T12:56:54.070Z,1560
2017-03-23T12:58:06.788Z,2820
2017-03-23T12:59:20.036Z,3355
2017-03-23T13:00:32.769Z,3050
2017-03-23T13:01:46.063Z,3320
2017-03-23T13:02:59.334Z,3270
2017-03-23T13:04:12.594Z,3085
2017-03-23T13:05:25.864Z,3055
2017-03-23T13:06:39.106Z,3260
2017-03-23T13:07:52.398Z,3095
2017-03-23T13:09:05.131Z,620
2017-03-23T13:10:18.396Z,1090
2017-03-23T13:11:31.131Z,520
2017-03-23T13:12:44.363Z,3080
2017-03-23T13:13:57.660Z,365
2017-03-23T13:15:10.990Z,3370
2017-03-23T13:16:23.723Z,3335
2017-03-23T13:17:37.020Z,3355
2017-03-23T13:18:49.770Z,3195
2017-03-23T13:20:03.064Z,3450
2017-03-23T13:21:15.863Z,3615
2017-03-23T13:22:29.165Z,3505
2017-03-23T13:23:41.927Z,3615
2017-03-23T13:24:54.653Z,3790
2017-03-23T13:26:07.420Z,3720
2017-03-23T13:27:20.201Z,3440
2017-03-23T13:28:33.504Z,3490
2017-03-23T13:29:46.288Z,3595
2017-03-23T13:30:59.036Z,3515
2017-03-23T13:32:11.785Z,3405
2017-03-23T13:33:24.569Z,3355
2017-03-23T13:34:37.363Z,3100
2017-03-23T13:35:50.657Z,2995
2017-03-23T13:37:02.883Z,3135
2017-03-23T13:38:16.137Z,3305
2017-03-23T13:39:29.369Z,3340
2017-03-23T13:40:41.622Z,3535
2017-03-23T13:41:54.898Z,3470
2017-03-23T13:43:08.181Z,3570
2017-03-23T13:44:21.466Z,3435
2017-03-23T13:45:34.245Z,3015
2017-03-23T13:46:47.551Z,3490
2017-03-23T13:48:00.735Z,2780
2017-03-23T13:49:14.188Z,3570
2017-03-23T13:50:27.498Z,4015
2017-03-23T13:51:40.258Z,2950
2017-03-23T13:52:53.524Z,2745
2017-03-23T13:54:06.784Z,2305
2017-03-23T13:55:20.063Z,3945
2017-03-23T13:56:32.833Z,2600
2017-03-23T13:57:46.122Z,3220
2017-03-23T13:58:59.396Z,2255
2017-03-23T14:00:12.155Z,1670
2017-03-23T14:01:24.937Z,2075
2017-03-23T14:02:37.185Z,2320
2017-03-23T14:03:49.909Z,2005
2017-03-23T14:05:02.665Z,3975
2017-03-23T14:06:14.905Z,3060
2017-03-23T14:07:27.178Z,4215
2017-03-23T14:08:40.037Z,3655
2017-03-23T14:09:53.309Z,3420
2017-03-23T14:11:06.581Z,3045
2017-03-23T14:12:19.874Z,3390
2017-03-23T14:13:32.604Z,3375
2017-03-23T14:14:44.308Z,3825
2017-03-23T14:15:57.619Z,3610
2017-03-23T14:17:10.891Z,4470
2017-03-23T14:18:24.141Z,3050
2017-03-23T14:19:37.373Z,4420
2017-03-23T14:20:50.638Z,2705
2017-03-23T14:22:03.899Z,3175
2017-03-23T14:23:16.639Z,3465
2017-03-23T14:24:29.917Z,2390
2017-03-23T14:25:42.695Z,3045
2017-03-23T14:26:55.496Z,2200
2017-03-23T14:28:07.742Z,2445
2017-03-23T14:29:21.001Z,2420
2017-03-23T14:30:34.291Z,2190
2017-03-23T14:31:47.093Z,2665
2017-03-23T14:32:59.883Z,2180
2017-03-23T14:34:13.130Z,2055
2017-03-23T14:35:24.879Z,1985
2017-03-23T14:36:38.164Z,3475
2017-03-23T14:37:50.894Z,2630
2017-03-23T14:39:03.673Z,2540
2017-03-23T14:40:16.952Z,1885
2017-03-23T14:41:30.236Z,2590
2017-03-23T14:42:42.993Z,2845
2017-03-23T14:43:56.270Z,1865
2017-03-23T14:45:09.535Z,2710
2017-03-23T14:46:22.297Z,4825
2017-03-23T14:47:35.077Z,2510
2017-03-23T14:48:47.853Z,1665
2017-03-23T14:50:00.606Z,1590
2017-03-23T14:51:13.375Z,1620
2017-03-23T14:52:26.145Z,2965
2017-03-23T14:53:38.892Z,3180
2017-03-23T14:54:52.181Z,4245
2017-03-23T14:56:05.444Z,4240
2017-03-23T14:57:18.229Z,4280
2017-03-23T14:58:30.982Z,3535
2017-03-23T14:59:43.710Z,4325
2017-03-23T15:00:56.997Z,1520
2017-03-23T15:02:09.736Z,4080
2017-03-23T15:03:22.988Z,4125
2017-03-23T15:04:36.289Z,4540
2017-03-23T15:05:49.053Z,4560
2017-03-23T15:07:02.356Z,4100
2017-03-23T15:08:14.614Z,4045
2017-03-23T15:09:27.416Z,4420
2017-03-23T15:10:40.705Z,1145
2017-03-23T15:11:53.974Z,4035
2017-03-23T15:13:07.394Z,4120
2017-03-23T15:14:21.015Z,4430
2017-03-23T15:15:33.890Z,4265
2017-03-23T15:16:47.164Z,4205
2017-03-23T15:18:00.469Z,3345
2017-03-23T15:19:13.713Z,3750
2017-03-23T15:20:25.952Z,4155
2017-03-23T15:21:39.228Z,4160
2017-03-23T15:22:52.519Z,3790
2017-03-23T15:24:05.990Z,4065
2017-03-23T15:25:19.264Z,4025
2017-03-23T15:26:32.028Z,3900
2017-03-23T15:27:45.313Z,3965
2017-03-23T15:28:58.583Z,3935
2017-03-23T15:30:11.912Z,3935
2017-03-23T15:31:25.180Z,4270
2017-03-23T15:32:37.931Z,4135
2017-03-23T15:33:51.209Z,4205
2017-03-23T15:35:03.989Z,3795
2017-03-23T15:36:16.737Z,3795
2017-03-23T15:37:28.954Z,3760
2017-03-23T15:38:42.233Z,3895
2017-03-23T15:39:55.501Z,4020
2017-03-23T15:41:08.287Z,3950
2017-03-23T15:42:21.035Z,3855
2017-03-23T15:43:34.312Z,3965
2017-03-23T15:44:47.095Z,4120
2017-03-23T15:46:00.373Z,3885
2017-03-23T15:47:13.747Z,3795
2017-03-23T15:48:26.983Z,3090
2017-03-23T15:49:39.744Z,2915
2017-03-23T15:50:53.039Z,3370
2017-03-23T15:52:05.824Z,3040
2017-03-23T15:53:19.120Z,4010
2017-03-23T15:54:31.980Z,3815
2017-03-23T15:55:45.259Z,3415
2017-03-23T15:56:57.578Z,3290
2017-03-23T15:58:10.399Z,3115
2017-03-23T15:59:23.151Z,1865
2017-03-23T16:00:35.894Z,2280
2017-03-23T16:01:49.140Z,1805
2017-03-23T16:03:02.431Z,2210
2017-03-23T16:04:14.135Z,2015
2017-03-23T16:05:27.394Z,1700
2017-03-23T16:06:39.640Z,2015
2017-03-23T16:07:52.410Z,2190
2017-03-23T16:09:05.703Z,2495
2017-03-23T16:10:18.540Z,2180
2017-03-23T16:11:31.327Z,3145
2017-03-23T16:12:44.081Z,2545
2017-03-23T16:13:57.331Z,3975
2017-03-23T16:15:10.609Z,4050
2017-03-23T16:16:23.373Z,3890
2017-03-23T16:17:36.142Z,3665
2017-03-23T16:18:49.429Z,3695
2017-03-23T16:20:01.713Z,3485
2017-03-23T16:21:14.461Z,3470
2017-03-23T16:22:27.262Z,3640
2017-03-23T16:23:40.559Z,1850
2017-03-23T16:24:53.866Z,2965
2017-03-23T16:26:07.203Z,3465
2017-03-23T16:27:20.480Z,3480
2017-03-23T16:28:33.245Z,3465
2017-03-23T16:29:45.966Z,3405
2017-03-23T16:30:59.253Z,3255
2017-03-23T16:32:12.006Z,3390
2017-03-23T16:33:25.339Z,3660
2017-03-23T16:34:38.095Z,3505
2017-03-23T16:35:50.849Z,3600
2017-03-23T16:37:03.583Z,3375
2017-03-23T16:38:16.333Z,3105
2017-03-23T16:39:29.638Z,3465
2017-03-23T16:40:42.407Z,3335
2017-03-23T16:41:55.663Z,3355
2017-03-23T16:43:08.993Z,3430
2017-03-23T16:44:21.792Z,3435
2017-03-23T16:45:35.304Z,3590
2017-03-23T16:46:48.078Z,3530
2017-03-23T16:48:01.367Z,3600
2017-03-23T16:49:14.143Z,3370
2017-03-23T16:50:27.467Z,2585
2017-03-23T16:51:40.710Z,2550
2017-03-23T16:52:53.992Z,2670
2017-03-23T16:54:06.753Z,2835
2017-03-23T16:55:19.486Z,3525
2017-03-23T16:56:32.292Z,3645
2017-03-23T16:57:45.058Z,3400
2017-03-23T16:58:58.345Z,2930
2017-03-23T17:00:10.582Z,2480
2017-03-23T17:01:23.862Z,2745
2017-03-23T17:02:36.114Z,3020
2017-03-23T17:03:48.898Z,2700
2017-03-23T17:05:01.703Z,3050
2017-03-23T17:06:14.989Z,2815
2017-03-23T17:07:27.745Z,3040
2017-03-23T17:08:40.508Z,3225
2017-03-23T17:09:53.256Z,3255
2017-03-23T17:11:06.586Z,3070